createdAt,value
2023-01-13T00:00:01.121Z,9.8
2023-01-13T00:03:00.961Z,9.9
2023-01-13T00:06:01.006Z,9.9
2023-01-13T00:09:01.003Z,9.9
2023-01-13T00:12:01.027Z,9.9
2023-01-13T00:15:01.027Z,9.9
2023-01-13T00:18:01.000Z,9.9
2023-01-13T00:21:01.004Z,9.9
2023-01-13T00:24:00.985Z,9.9
2023-01-13T00:27:01.010Z,9.9
2023-01-13T00:30:01.011Z,9.8
2023-01-13T00:33:01.054Z,9.8
2023-01-13T00:36:00.997Z,9.8
2023-01-13T00:39:01.035Z,9.8
2023-01-13T00:42:01.014Z,9.8
2023-01-13T00:45:00.953Z,9.8
2023-01-13T00:48:01.092Z,9.8
2023-01-13T00:51:01.189Z,9.8
2023-01-13T00:54:00.997Z,9.8
2023-01-13T00:57:01.037Z,9.8
2023-01-13T01:00:01.048Z,9.7
2023-01-13T01:03:01.037Z,9.7
2023-01-13T01:06:00.947Z,9.7
2023-01-13T01:09:01.120Z,9.7
2023-01-13T01:12:01.065Z,9.7
2023-01-13T01:15:01.159Z,9.7
2023-01-13T01:18:01.003Z,9.7
2023-01-13T01:21:00.974Z,9.7
2023-01-13T01:24:01.026Z,9.7
2023-01-13T01:27:01.043Z,9.7
2023-01-13T01:30:00.986Z,9.7
2023-01-13T01:33:00.950Z,9.7
2023-01-13T01:36:00.976Z,9.7
2023-01-13T01:39:00.990Z,9.7
2023-01-13T01:42:01.073Z,9.7
2023-01-13T01:45:00.996Z,9.7
2023-01-13T01:48:01.005Z,9.7
2023-01-13T01:51:01.009Z,9.7
2023-01-13T01:54:01.064Z,9.7
2023-01-13T01:57:01.088Z,9.7
2023-01-13T02:00:01.053Z,9.7
2023-01-13T02:03:01.353Z,9.7
2023-01-13T02:06:00.998Z,9.7
2023-01-13T02:09:01.122Z,9.7
2023-01-13T02:12:00.955Z,9.7
2023-01-13T02:15:00.936Z,10
2023-01-13T02:18:01.095Z,10
2023-01-13T02:21:00.930Z,10
2023-01-13T02:24:01.095Z,10
2023-01-13T02:27:01.071Z,10
2023-01-13T02:30:01.012Z,10
2023-01-13T02:33:00.995Z,10
2023-01-13T02:36:01.002Z,10
2023-01-13T02:39:01.049Z,9.8
2023-01-13T02:42:00.998Z,9.8
2023-01-13T02:45:01.120Z,9.8
2023-01-13T02:48:01.010Z,9.8
2023-01-13T02:51:01.011Z,9.8
2023-01-13T02:54:00.969Z,9.8
2023-01-13T02:57:01.015Z,9.8
2023-01-13T03:00:00.901Z,9.7
2023-01-13T03:03:01.078Z,9.8
2023-01-13T03:06:00.871Z,9.8
2023-01-13T03:09:00.949Z,9.7
2023-01-13T03:12:01.047Z,9.7
2023-01-13T03:15:00.843Z,9.7
2023-01-13T03:18:00.923Z,9.7
2023-01-13T03:21:00.875Z,9.7
2023-01-13T03:24:00.934Z,9.7
2023-01-13T03:27:00.911Z,9.7
2023-01-13T03:30:00.903Z,9.7
2023-01-13T03:33:00.868Z,9.7
2023-01-13T03:36:00.918Z,9.7
2023-01-13T03:39:00.991Z,9.5
2023-01-13T03:42:00.859Z,9.5
2023-01-13T03:45:00.903Z,9.5
2023-01-13T03:48:00.833Z,9.5
2023-01-13T03:51:00.931Z,9.5
2023-01-13T03:54:00.867Z,9.5
2023-01-13T03:57:00.971Z,9.5
2023-01-13T04:00:00.906Z,9.5
2023-01-13T04:03:00.929Z,9.5
2023-01-13T04:06:00.913Z,9.5
2023-01-13T04:09:00.915Z,9.5
2023-01-13T04:12:00.897Z,9.5
2023-01-13T04:15:00.892Z,9.5
2023-01-13T04:18:00.919Z,9.5
2023-01-13T04:21:00.886Z,9.5
2023-01-13T04:24:00.928Z,9.4
2023-01-13T04:27:00.995Z,9.4
2023-01-13T04:30:01.036Z,9.4
2023-01-13T04:33:00.856Z,9.4
2023-01-13T04:36:00.885Z,9.4
2023-01-13T04:39:00.876Z,9.4
2023-01-13T04:42:00.923Z,9.4
2023-01-13T04:45:00.855Z,9.4
2023-01-13T04:48:00.954Z,9.4
2023-01-13T04:51:00.898Z,9.4
2023-01-13T04:54:00.930Z,9.4
2023-01-13T04:57:00.901Z,9.4
2023-01-13T05:00:01.080Z,9.4
2023-01-13T05:03:00.997Z,9.4
2023-01-13T05:06:00.872Z,9.2
2023-01-13T05:09:00.852Z,9.2
2023-01-13T05:12:00.964Z,9.2
2023-01-13T05:15:00.844Z,9.2
2023-01-13T05:18:00.883Z,9.2
2023-01-13T05:21:00.877Z,9.2
2023-01-13T05:24:00.848Z,9.2
2023-01-13T05:27:00.911Z,9.2
2023-01-13T05:30:00.890Z,9
2023-01-13T05:33:00.833Z,9
2023-01-13T05:36:00.971Z,9
2023-01-13T05:39:00.885Z,9
2023-01-13T05:42:00.854Z,9
2023-01-13T05:45:00.916Z,9
2023-01-13T05:48:00.858Z,9
2023-01-13T05:51:01.223Z,8.8
2023-01-13T05:54:01.142Z,8.8
2023-01-13T05:57:00.910Z,8.8
2023-01-13T06:00:01.257Z,8.8
2023-01-13T06:03:00.971Z,8.8
2023-01-13T06:06:00.870Z,8.6
2023-01-13T06:09:00.872Z,8.6
2023-01-13T06:12:00.929Z,8.6
2023-01-13T06:15:00.899Z,8.6
2023-01-13T06:18:00.907Z,8.6
2023-01-13T06:21:00.852Z,8.3
2023-01-13T06:24:00.878Z,8.3
2023-01-13T06:27:00.928Z,8.3
2023-01-13T06:30:00.876Z,8.3
2023-01-13T06:33:00.874Z,8.3
2023-01-13T06:36:00.869Z,8.3
2023-01-13T06:39:00.881Z,8.3
2023-01-13T06:42:00.989Z,8.3
2023-01-13T06:45:01.583Z,8.3
2023-01-13T06:48:00.845Z,8.3
2023-01-13T06:51:00.855Z,8.3
2023-01-13T06:54:00.882Z,8.3
2023-01-13T06:57:00.903Z,8.3
2023-01-13T07:00:00.980Z,8
2023-01-13T07:03:00.891Z,8
2023-01-13T07:06:00.879Z,8
2023-01-13T07:09:00.887Z,8
2023-01-13T07:12:00.910Z,8
2023-01-13T07:15:00.932Z,8
2023-01-13T07:18:00.899Z,8
2023-01-13T07:21:00.946Z,8
2023-01-13T07:24:00.932Z,8
2023-01-13T07:27:00.940Z,8
2023-01-13T07:30:01.087Z,8
2023-01-13T07:33:00.906Z,8
2023-01-13T07:36:00.910Z,8
2023-01-13T07:39:00.929Z,8
2023-01-13T07:42:00.990Z,8
2023-01-13T07:45:00.871Z,7.8
2023-01-13T07:48:01.001Z,7.8
2023-01-13T07:51:00.917Z,7.8
2023-01-13T07:54:00.949Z,7.8
2023-01-13T07:57:00.945Z,7.8
2023-01-13T08:00:01.011Z,7.8
2023-01-13T08:03:00.976Z,7.8
2023-01-13T08:06:01.020Z,7.8
2023-01-13T08:09:00.877Z,7.8
2023-01-13T08:12:00.917Z,7.8
2023-01-13T08:15:01.576Z,7.8
2023-01-13T08:18:00.980Z,7.8
2023-01-13T08:21:00.946Z,7.8
2023-01-13T08:24:00.892Z,7.8
2023-01-13T08:27:00.913Z,7.9
2023-01-13T08:30:01.136Z,7.9
2023-01-13T08:33:00.899Z,7.9
2023-01-13T08:36:00.931Z,7.9
2023-01-13T08:39:00.917Z,8.1
2023-01-13T08:42:00.954Z,8.1
2023-01-13T08:45:00.915Z,8.1
2023-01-13T08:48:00.957Z,8.1
2023-01-13T08:51:00.996Z,8.2
2023-01-13T08:54:01.015Z,8.2
2023-01-13T08:57:00.995Z,8.2
2023-01-13T09:00:01.031Z,8.2
2023-01-13T09:03:00.943Z,8.2
2023-01-13T09:06:00.924Z,8.2
2023-01-13T09:09:00.897Z,8.2
2023-01-13T09:12:00.928Z,8.2
2023-01-13T09:15:00.959Z,8.2
2023-01-13T09:18:00.866Z,8.3
2023-01-13T09:21:00.875Z,8.3
2023-01-13T09:24:00.966Z,8.3
2023-01-13T09:27:01.004Z,8.3
2023-01-13T09:30:01.030Z,8.3
2023-01-13T09:33:00.881Z,8.3
2023-01-13T09:36:00.973Z,8.3
2023-01-13T09:39:00.888Z,8.3
2023-01-13T09:42:00.944Z,8.3
2023-01-13T09:45:00.895Z,8.5
2023-01-13T09:48:00.892Z,8.5
2023-01-13T09:51:01.025Z,8.5
2023-01-13T09:54:00.899Z,8.5
2023-01-13T09:57:00.899Z,8.5
2023-01-13T10:00:01.047Z,8.5
2023-01-13T10:03:00.887Z,8.5
2023-01-13T10:06:00.921Z,8.5
2023-01-13T10:09:00.927Z,8.7
2023-01-13T10:12:00.899Z,8.7
2023-01-13T10:15:00.895Z,8.7
2023-01-13T10:18:01.006Z,8.7
2023-01-13T10:21:00.935Z,8.7
2023-01-13T10:24:01.116Z,8.7
2023-01-13T10:27:00.927Z,8.7
2023-01-13T10:30:00.982Z,8.7
2023-01-13T10:33:01.033Z,8.7
2023-01-13T10:36:00.979Z,8.7
2023-01-13T10:39:00.914Z,8.7
2023-01-13T10:42:00.906Z,9
2023-01-13T10:45:00.945Z,9.1
2023-01-13T10:48:00.897Z,9.1
2023-01-13T10:51:00.890Z,9.1
2023-01-13T10:54:00.896Z,9.1
2023-01-13T10:57:00.940Z,9.1
2023-01-13T11:00:01.002Z,9.1
2023-01-13T11:03:00.897Z,9.1
2023-01-13T11:06:01.101Z,9.1
2023-01-13T11:09:00.925Z,9.1
2023-01-13T11:12:00.919Z,9.1
2023-01-13T11:15:00.989Z,9.1
2023-01-13T11:18:01.091Z,9.1
2023-01-13T11:21:00.896Z,9.1
2023-01-13T11:24:00.885Z,9.1
2023-01-13T11:27:00.962Z,9.1
2023-01-13T11:30:01.223Z,9.1
2023-01-13T11:33:00.883Z,9.1
2023-01-13T11:36:01.097Z,9.1
2023-01-13T11:39:00.953Z,9.1
2023-01-13T11:42:01.049Z,9.4
2023-01-13T11:45:01.020Z,9.4
2023-01-13T11:48:01.091Z,9.4
2023-01-13T11:51:01.203Z,9.4
2023-01-13T11:54:00.987Z,9.4
2023-01-13T11:57:01.220Z,9.4
2023-01-13T12:00:01.127Z,9.6
2023-01-13T12:03:01.133Z,9.6
2023-01-13T12:06:01.311Z,9.6
2023-01-13T12:09:01.051Z,9.6
2023-01-13T12:12:01.165Z,9.6
2023-01-13T12:15:00.974Z,9.6
2023-01-13T12:18:00.905Z,9.6
2023-01-13T12:21:00.915Z,9.6
2023-01-13T12:24:01.028Z,9.6
2023-01-13T12:27:00.976Z,9.6
2023-01-13T12:30:01.089Z,9.6
2023-01-13T12:33:00.895Z,9.6
2023-01-13T12:36:00.941Z,9.7
2023-01-13T12:39:01.008Z,9.6
2023-01-13T12:42:00.902Z,9.6
2023-01-13T12:45:01.498Z,9.6
2023-01-13T12:48:00.958Z,9.6
2023-01-13T12:51:00.927Z,9.5
2023-01-13T12:54:00.950Z,9.5
2023-01-13T12:57:00.885Z,9.5
2023-01-13T13:00:01.113Z,9.5
2023-01-13T13:03:01.037Z,9.5
2023-01-13T13:06:00.929Z,9.5
2023-01-13T13:09:04.313Z,9.6
2023-01-13T13:12:01.008Z,9.5
2023-01-13T13:15:03.949Z,9.5
2023-01-13T13:18:00.954Z,9.5
2023-01-13T13:21:04.774Z,9.5
2023-01-13T13:24:00.937Z,9.5
2023-01-13T13:27:03.751Z,9.5
2023-01-13T13:30:01.103Z,9.5
2023-01-13T13:33:00.929Z,9.6
2023-01-13T13:36:00.957Z,9.6
2023-01-13T13:39:00.941Z,9.6
2023-01-13T13:42:00.947Z,9.6
2023-01-13T13:45:00.960Z,9.6
2023-01-13T13:48:00.978Z,9.6
2023-01-13T13:51:00.985Z,9.6
2023-01-13T13:54:00.964Z,9.6
2023-01-13T13:57:00.942Z,9.4
2023-01-13T14:00:01.098Z,9.4
2023-01-13T14:03:00.940Z,9.4
2023-01-13T14:06:00.887Z,9.4
2023-01-13T14:09:00.850Z,9.4
2023-01-13T14:12:00.915Z,9.4
2023-01-13T14:15:00.875Z,9.4
2023-01-13T14:18:00.976Z,9.3
2023-01-13T14:21:00.831Z,9.3
2023-01-13T14:24:00.920Z,9.3
2023-01-13T14:27:00.848Z,9.2
2023-01-13T14:30:00.982Z,9.2
2023-01-13T14:33:00.917Z,9.2
2023-01-13T14:36:00.889Z,9.1
2023-01-13T14:39:00.834Z,9.1
2023-01-13T14:42:00.940Z,9.1
2023-01-13T14:45:00.826Z,9.1
2023-01-13T14:48:00.833Z,9.1
2023-01-13T14:51:00.836Z,8.9
2023-01-13T14:54:00.803Z,8.9
2023-01-13T14:57:00.937Z,8.9
2023-01-13T15:00:00.872Z,8.7
2023-01-13T15:03:00.934Z,8.7
2023-01-13T15:06:00.883Z,8.7
2023-01-13T15:09:00.896Z,8.7
2023-01-13T15:12:00.845Z,8.7
2023-01-13T15:15:00.835Z,8.5
2023-01-13T15:18:00.861Z,8.5
2023-01-13T15:21:00.853Z,8.4
2023-01-13T15:24:00.902Z,8.4
2023-01-13T15:27:00.799Z,8.4
2023-01-13T15:30:00.951Z,8.4
2023-01-13T15:33:00.770Z,8.4
2023-01-13T15:36:00.792Z,8.4
2023-01-13T15:39:00.807Z,8.4
2023-01-13T15:42:00.812Z,8.4
2023-01-13T15:45:01.078Z,8.1
2023-01-13T15:48:00.871Z,8.1
2023-01-13T15:51:00.787Z,8.1
2023-01-13T15:54:00.787Z,8.1
2023-01-13T15:57:00.795Z,8.1
2023-01-13T16:00:00.922Z,8.1
2023-01-13T16:03:00.953Z,8.1
2023-01-13T16:06:00.809Z,8.1
2023-01-13T16:09:03.485Z,8
2023-01-13T16:12:00.827Z,8
2023-01-13T16:15:00.785Z,8
2023-01-13T16:18:00.828Z,8
2023-01-13T16:21:00.826Z,8
2023-01-13T16:24:00.832Z,8
2023-01-13T16:27:00.883Z,8
2023-01-13T16:30:00.808Z,8
2023-01-13T16:33:00.874Z,8
2023-01-13T16:36:12.309Z,8
2023-01-13T16:39:00.817Z,8
2023-01-13T16:42:00.930Z,8
2023-01-13T16:45:00.891Z,8
2023-01-13T16:48:00.933Z,8
2023-01-13T16:51:00.873Z,8
2023-01-13T16:54:01.117Z,8
2023-01-13T16:57:00.988Z,8
2023-01-13T17:00:00.969Z,7.9
2023-01-13T17:03:00.852Z,7.9
2023-01-13T17:06:00.975Z,7.9
2023-01-13T17:09:01.043Z,7.9
2023-01-13T17:12:00.838Z,7.9
2023-01-13T17:15:00.919Z,7.8
2023-01-13T17:18:00.876Z,7.8
2023-01-13T17:21:00.885Z,7.8
2023-01-13T17:24:00.833Z,7.8
2023-01-13T17:27:00.923Z,7.8
2023-01-13T17:30:00.973Z,7.8
2023-01-13T17:33:00.863Z,7.8
2023-01-13T17:36:00.913Z,7.8
2023-01-13T17:39:00.858Z,7.8
2023-01-13T17:42:01.083Z,7.8
2023-01-13T17:45:00.936Z,7.8
2023-01-13T17:48:01.093Z,7.8
2023-01-13T17:51:00.907Z,7.8
2023-01-13T17:54:00.886Z,7.8
2023-01-13T17:57:00.905Z,7.8
2023-01-13T18:00:00.903Z,7.8
2023-01-13T18:03:01.057Z,7.8
2023-01-13T18:06:00.908Z,7.8
2023-01-13T18:09:00.890Z,7.8
2023-01-13T18:12:00.884Z,7.8
2023-01-13T18:15:00.905Z,7.8
2023-01-13T18:18:01.037Z,7.8
2023-01-13T18:21:00.883Z,7.8
2023-01-13T18:24:00.887Z,7.8
2023-01-13T18:27:00.907Z,7.8
2023-01-13T18:30:00.934Z,7.8
2023-01-13T18:33:00.961Z,7.9
2023-01-13T18:36:00.926Z,7.9
2023-01-13T18:39:00.918Z,7.9
2023-01-13T18:42:00.850Z,7.9
2023-01-13T18:45:00.895Z,7.9
2023-01-13T18:48:01.033Z,7.9
2023-01-13T18:51:00.920Z,7.9
2023-01-13T18:54:00.958Z,7.9
2023-01-13T18:57:00.871Z,7.8
2023-01-13T19:00:00.949Z,7.7
2023-01-13T19:06:00.855Z,7.7
2023-01-13T19:09:00.882Z,7.7
2023-01-13T19:12:00.894Z,7.7
2023-01-13T19:15:00.875Z,7.7
2023-01-13T19:18:00.923Z,7.7
2023-01-13T19:21:00.913Z,7.7
2023-01-13T19:24:00.880Z,7.7
2023-01-13T19:27:00.828Z,7.7
2023-01-13T19:30:01.766Z,7.8
2023-01-13T19:33:00.840Z,7.8
2023-01-13T19:36:00.956Z,7.8
2023-01-13T19:39:00.855Z,7.8
2023-01-13T19:42:00.908Z,7.8
2023-01-13T19:45:00.877Z,7.8
2023-01-13T19:48:00.963Z,7.8
2023-01-13T19:51:00.853Z,7.9
2023-01-13T19:54:01.238Z,7.9
2023-01-13T19:57:00.924Z,7.9
2023-01-13T20:00:01.239Z,7.8
2023-01-13T20:03:01.009Z,7.8
2023-01-13T20:06:00.931Z,7.8
2023-01-13T20:09:00.958Z,7.8
2023-01-13T20:12:00.900Z,7.8
2023-01-13T20:15:00.947Z,7.8
2023-01-13T20:18:00.953Z,7.8
2023-01-13T20:21:00.932Z,7.8
2023-01-13T20:24:00.888Z,7.8
2023-01-13T20:27:00.929Z,7.8
2023-01-13T20:30:01.009Z,7.7
2023-01-13T20:33:00.873Z,7.7
2023-01-13T20:36:00.919Z,7.7
2023-01-13T20:39:00.894Z,7.7
2023-01-13T20:42:00.933Z,7.7
2023-01-13T20:45:00.913Z,7.7
2023-01-13T20:48:00.931Z,7.7
2023-01-13T20:51:00.893Z,7.7
2023-01-13T20:54:00.915Z,7.7
2023-01-13T20:57:00.879Z,7.7
2023-01-13T21:00:01.118Z,7.7
2023-01-13T21:03:00.931Z,7.7
2023-01-13T21:06:00.937Z,7.7
2023-01-13T21:09:00.893Z,7.7
2023-01-13T21:12:00.892Z,7.7
2023-01-13T21:15:00.935Z,7.7
2023-01-13T21:18:00.880Z,7.7
2023-01-13T21:21:00.929Z,7.7
2023-01-13T21:24:00.896Z,7.8
2023-01-13T21:27:00.896Z,7.8
2023-01-13T21:30:00.885Z,7.8
2023-01-13T21:33:00.971Z,7.8
2023-01-13T21:36:00.920Z,7.8
2023-01-13T21:39:00.910Z,7.8
2023-01-13T21:42:00.843Z,7.8
2023-01-13T21:45:01.101Z,7.8
2023-01-13T21:48:00.926Z,7.8
2023-01-13T21:51:01.007Z,7.8
2023-01-13T21:54:00.854Z,7.8
2023-01-13T21:57:01.004Z,7.8
2023-01-13T22:00:00.949Z,7.8
2023-01-13T22:03:00.897Z,7.8
2023-01-13T22:06:01.067Z,7.8
2023-01-13T22:09:00.965Z,7.8
2023-01-13T22:12:00.860Z,7.8
2023-01-13T22:15:00.928Z,7.8
2023-01-13T22:18:00.851Z,7.8
2023-01-13T22:21:00.887Z,7.8
2023-01-13T22:24:00.936Z,7.9
2023-01-13T22:27:00.956Z,7.9
2023-01-13T22:30:00.893Z,7.9
2023-01-13T22:33:00.917Z,7.9
2023-01-13T22:36:00.859Z,7.9
2023-01-13T22:39:01.191Z,7.9
2023-01-13T22:42:01.036Z,7.9
2023-01-13T22:45:00.916Z,7.9
2023-01-13T22:48:00.936Z,8
2023-01-13T22:51:01.041Z,8
2023-01-13T22:54:00.873Z,8
2023-01-13T22:57:00.927Z,8
2023-01-13T23:00:01.616Z,8
2023-01-13T23:03:00.908Z,8
2023-01-13T23:06:00.917Z,8
2023-01-13T23:09:00.971Z,8
2023-01-13T23:12:01.004Z,8
2023-01-13T23:15:00.896Z,8
2023-01-13T23:18:00.888Z,8
2023-01-13T23:21:00.896Z,8
2023-01-13T23:24:00.862Z,8
2023-01-13T23:27:00.959Z,8
2023-01-13T23:30:00.920Z,8
2023-01-13T23:33:00.927Z,7.9
2023-01-13T23:36:00.929Z,7.9
2023-01-13T23:39:00.959Z,7.9
2023-01-13T23:42:00.874Z,7.8
2023-01-13T23:45:00.959Z,7.8
2023-01-13T23:48:00.902Z,7.8
2023-01-13T23:51:00.892Z,7.8
2023-01-13T23:54:00.966Z,7.8
2023-01-13T23:57:00.918Z,7.8
